Time;durP1;ratioP1;P1;durP2;ratioP2;P2;SDS_P1;SDS_P2;PMS_P1;PMS_P2;Temp;Humidity;BMP_temperature;BMP_pressure;BME280_temperature;BME280_humidity;BME280_pressure;Samples;Min_cycle;Max_cycle;Signal;HPM_P1;HPM_P2
2021/08/31 00:00:31;;;;;;;9.97;8.00;;;15.80;99.90;;;;;;5157290;27;20487;-83
2021/08/31 00:02:59;;;;;;;8.63;7.73;;;15.80;99.90;;;;;;5156248;27;20481;-82
2021/08/31 00:05:26;;;;;;;12.40;7.80;;;15.70;99.90;;;;;;5154806;27;20431;-83
2021/08/31 00:07:52;;;;;;;10.00;7.63;;;15.50;99.90;;;;;;5151375;27;20438;-83
2021/08/31 00:10:19;;;;;;;11.67;7.40;;;15.70;99.90;;;;;;5144949;27;20470;-83
2021/08/31 00:12:45;;;;;;;9.40;7.93;;;15.60;99.90;;;;;;5141873;27;20439;-83
2021/08/31 00:15:12;;;;;;;9.53;7.53;;;15.60;99.90;;;;;;5141457;27;20438;-83
2021/08/31 00:17:39;;;;;;;11.70;7.90;;;15.50;99.90;;;;;;5139895;27;20470;-83
2021/08/31 00:20:10;;;;;;;10.60;7.70;;;15.60;99.90;;;;;;5140023;27;20874;-83
2021/08/31 00:22:37;;;;;;;11.50;7.70;;;15.50;99.90;;;;;;5139995;27;20458;-83
2021/08/31 00:25:04;;;;;;;9.53;8.30;;;15.70;99.90;;;;;;5139930;27;20503;-83
2021/08/31 00:27:31;;;;;;;14.10;8.50;;;15.60;99.90;;;;;;5140890;27;20442;-83
2021/08/31 00:29:58;;;;;;;9.70;7.70;;;15.60;99.90;;;;;;5139944;27;20859;-83
2021/08/31 00:32:24;;;;;;;13.70;9.00;;;15.70;99.90;;;;;;5140563;27;20503;-83
2021/08/31 00:34:51;;;;;;;11.00;9.13;;;15.70;99.90;;;;;;5140042;27;20489;-83
2021/08/31 00:37:19;;;;;;;9.70;7.23;;;15.60;99.90;;;;;;5139661;27;20940;-83
2021/08/31 00:39:45;;;;;;;16.40;8.70;;;15.50;99.90;;;;;;5139787;27;20834;-83
2021/08/31 00:42:12;;;;;;;9.30;8.00;;;15.60;99.90;;;;;;5140284;27;20478;-83
2021/08/31 00:44:39;;;;;;;8.90;7.90;;;15.60;99.90;;;;;;5152220;27;20422;-82
2021/08/31 00:47:06;;;;;;;9.90;6.53;;;15.60;99.90;;;;;;5159064;27;20943;-82
2021/08/31 00:49:33;;;;;;;8.90;7.57;;;15.60;99.90;;;;;;5157951;27;20477;-82
2021/08/31 00:52:01;;;;;;;9.50;7.60;;;15.60;99.90;;;;;;5158068;27;20435;-82
2021/08/31 00:54:30;;;;;;;9.90;7.97;;;15.50;99.90;;;;;;5158808;27;20426;-80
2021/08/31 00:56:59;;;;;;;10.30;8.53;;;15.20;99.90;;;;;;5159980;27;20418;-82
2021/08/31 00:59:26;;;;;;;11.37;8.37;;;15.60;99.90;;;;;;5159953;27;20451;-82
2021/08/31 01:01:53;;;;;;;14.87;8.97;;;15.60;99.90;;;;;;5158123;27;20476;-82
2021/08/31 01:04:20;;;;;;;10.03;8.13;;;15.60;99.90;;;;;;5145542;27;20450;-83
2021/08/31 01:06:47;;;;;;;12.80;8.73;;;15.60;99.90;;;;;;5140629;27;20447;-83
2021/08/31 01:09:14;;;;;;;11.67;9.50;;;15.30;99.90;;;;;;5140004;27;20467;-83
2021/08/31 01:11:41;;;;;;;10.33;8.30;;;15.50;99.90;;;;;;5140514;27;20469;-83
2021/08/31 01:14:09;;;;;;;13.30;8.60;;;15.50;99.90;;;;;;5140028;27;20489;-83
2021/08/31 01:16:37;;;;;;;11.13;8.00;;;15.50;99.90;;;;;;5139155;27;20442;-83
2021/08/31 01:19:03;;;;;;;13.73;8.83;;;15.60;99.90;;;;;;5136848;27;20499;-83
2021/08/31 01:21:30;;;;;;;12.43;8.70;;;15.40;99.90;;;;;;5136796;27;21048;-83
2021/08/31 01:23:57;;;;;;;11.23;8.47;;;15.50;99.90;;;;;;5136887;27;20474;-83
2021/08/31 01:26:25;;;;;;;14.80;8.10;;;15.50;99.90;;;;;;5137687;27;20478;-83
2021/08/31 01:28:52;;;;;;;12.23;9.50;;;15.60;99.90;;;;;;5137236;27;20487;-83
2021/08/31 01:31:19;;;;;;;12.27;8.40;;;15.60;99.90;;;;;;5137077;27;20450;-83
2021/08/31 01:33:46;;;;;;;10.33;8.07;;;15.50;99.90;;;;;;5138691;27;20452;-83
2021/08/31 01:36:18;;;;;;;11.83;9.47;;;15.60;99.90;;;;;;5139995;27;20434;-83
2021/08/31 01:38:46;;;;;;;11.77;8.13;;;15.50;99.90;;;;;;5139749;27;21003;-83
2021/08/31 01:41:12;;;;;;;9.80;8.40;;;15.50;99.90;;;;;;5153692;27;20443;-82
2021/08/31 01:43:41;;;;;;;16.20;8.37;;;15.40;99.90;;;;;;5149842;27;20483;-83
2021/08/31 01:46:08;;;;;;;14.63;8.03;;;15.40;99.90;;;;;;5139526;27;20998;-84
2021/08/31 01:48:34;;;;;;;12.20;8.40;;;15.50;99.90;;;;;;5139526;27;20470;-83
2021/08/31 01:51:01;;;;;;;8.90;7.73;;;15.50;99.90;;;;;;5138311;27;20497;-83
2021/08/31 01:53:28;;;;;;;12.70;9.47;;;15.40;99.90;;;;;;5138469;27;20438;-83
2021/08/31 01:55:54;;;;;;;9.20;8.17;;;15.50;99.90;;;;;;5138527;27;20447;-83
2021/08/31 01:58:21;;;;;;;9.47;8.67;;;15.40;99.90;;;;;;5138626;27;20805;-83
2021/08/31 02:00:49;;;;;;;11.07;8.10;;;15.50;99.90;;;;;;5137913;27;21034;-83
2021/08/31 02:03:15;;;;;;;11.57;9.40;;;15.30;99.90;;;;;;5138985;27;20484;-83
2021/08/31 02:05:42;;;;;;;11.23;8.73;;;15.50;99.90;;;;;;5138848;27;20818;-83
2021/08/31 02:08:09;;;;;;;9.73;8.70;;;15.40;99.90;;;;;;5138910;27;20438;-83
2021/08/31 02:10:35;;;;;;;12.13;8.30;;;15.40;99.90;;;;;;5138193;27;20492;-83
2021/08/31 02:13:02;;;;;;;12.93;8.90;;;15.40;99.90;;;;;;5137973;27;20431;-83
2021/08/31 02:15:29;;;;;;;10.47;8.90;;;15.40;99.90;;;;;;5141740;27;20430;-82
2021/08/31 02:17:57;;;;;;;10.47;8.50;;;15.40;99.90;;;;;;5145738;27;20495;-83
2021/08/31 02:20:23;;;;;;;11.73;9.37;;;15.30;99.90;;;;;;5153225;27;20455;-83
2021/08/31 02:22:50;;;;;;;12.27;8.87;;;15.30;99.90;;;;;;5139559;27;20479;-83
2021/08/31 02:25:17;;;;;;;11.00;8.70;;;15.20;99.90;;;;;;5139243;27;20495;-83
2021/08/31 02:27:43;;;;;;;12.30;9.27;;;15.30;99.90;;;;;;5138459;27;20472;-83
2021/08/31 02:30:11;;;;;;;15.40;9.90;;;15.40;99.90;;;;;;5147120;27;20454;-83
2021/08/31 02:32:38;;;;;;;13.17;10.00;;;15.10;99.90;;;;;;5157561;27;20527;-83
2021/08/31 02:35:07;;;;;;;12.47;10.23;;;15.00;99.90;;;;;;5140897;27;20446;-82
2021/08/31 02:37:34;;;;;;;15.97;9.37;;;15.00;99.90;;;;;;5154859;27;20443;-82
2021/08/31 02:40:00;;;;;;;11.30;8.80;;;14.90;99.90;;;;;;5154640;27;20478;-82
2021/08/31 02:42:27;;;;;;;14.00;11.23;;;15.00;99.90;;;;;;5150703;27;20482;-83
2021/08/31 02:44:53;;;;;;;14.20;10.20;;;15.00;99.90;;;;;;5138049;27;20453;-83
2021/08/31 02:47:20;;;;;;;11.67;10.27;;;14.90;99.90;;;;;;5138132;27;20442;-83
2021/08/31 02:49:46;;;;;;;11.63;10.43;;;15.00;99.90;;;;;;5138258;27;20491;-83
2021/08/31 02:52:15;;;;;;;12.43;9.50;;;15.00;99.90;;;;;;5139713;27;20434;-83
2021/08/31 02:54:41;;;;;;;17.10;10.77;;;15.00;99.90;;;;;;5137532;27;20447;-84
2021/08/31 02:57:09;;;;;;;13.27;10.00;;;15.00;99.90;;;;;;5137667;28;20481;-84
2021/08/31 02:59:35;;;;;;;11.90;9.73;;;15.00;99.90;;;;;;5137681;28;20469;-83
2021/08/31 03:02:05;;;;;;;11.37;10.17;;;15.00;99.90;;;;;;5137407;28;20547;-83
2021/08/31 03:04:32;;;;;;;11.17;9.63;;;15.10;99.90;;;;;;5137383;28;20446;-83
2021/08/31 03:06:59;;;;;;;10.07;8.97;;;15.00;99.90;;;;;;5137647;28;20498;-83
2021/08/31 03:09:27;;;;;;;12.47;10.50;;;15.10;99.90;;;;;;5137362;28;20496;-83
2021/08/31 03:11:54;;;;;;;13.50;10.33;;;15.10;99.90;;;;;;5137249;28;20948;-83
2021/08/31 03:14:21;;;;;;;12.60;9.83;;;15.10;99.90;;;;;;5137897;28;20770;-84
2021/08/31 03:16:49;;;;;;;9.57;8.57;;;15.00;99.90;;;;;;5144529;28;20454;-82
2021/08/31 03:19:16;;;;;;;10.50;9.40;;;15.10;99.90;;;;;;5138152;28;20454;-82
2021/08/31 03:21:42;;;;;;;11.20;9.40;;;15.10;99.90;;;;;;5137575;28;20743;-82
2021/08/31 03:24:09;;;;;;;9.20;8.10;;;15.20;99.90;;;;;;5137456;28;20479;-83
2021/08/31 03:26:37;;;;;;;12.90;10.47;;;15.20;99.90;;;;;;5136597;28;20443;-83
2021/08/31 03:29:04;;;;;;;10.67;9.53;;;15.00;99.90;;;;;;5138113;28;20470;-83
2021/08/31 03:31:30;;;;;;;10.00;8.67;;;15.10;99.90;;;;;;5145319;28;20434;-82
2021/08/31 03:33:57;;;;;;;14.97;10.00;;;15.10;99.90;;;;;;5150485;28;20438;-82
2021/08/31 03:36:24;;;;;;;10.10;9.10;;;15.30;99.90;;;;;;5139492;28;20450;-82
2021/08/31 03:38:50;;;;;;;10.40;9.40;;;15.30;99.90;;;;;;5135727;28;20503;-81
2021/08/31 03:41:17;;;;;;;12.33;9.57;;;15.30;99.90;;;;;;5147083;28;20445;-81
2021/08/31 03:43:46;;;;;;;11.33;9.47;;;15.30;99.90;;;;;;5150969;28;20486;-81
2021/08/31 03:46:12;;;;;;;12.40;10.13;;;15.30;99.90;;;;;;5136415;28;20454;-82
2021/08/31 03:48:39;;;;;;;9.80;8.80;;;15.20;99.90;;;;;;5135794;28;20446;-82
2021/08/31 03:51:06;;;;;;;14.30;9.53;;;15.20;99.90;;;;;;5144717;28;20466;-82
2021/08/31 03:53:32;;;;;;;10.47;9.33;;;15.20;99.90;;;;;;5153658;28;20450;-81
2021/08/31 03:55:59;;;;;;;13.13;9.87;;;15.20;99.90;;;;;;5145441;27;20446;-82
2021/08/31 03:58:26;;;;;;;10.70;9.27;;;15.10;99.90;;;;;;5144838;27;20451;-82
2021/08/31 04:00:53;;;;;;;11.40;9.90;;;15.20;99.90;;;;;;5154502;27;20453;-81
2021/08/31 04:03:20;;;;;;;10.47;9.20;;;15.20;99.90;;;;;;5148151;27;20527;-82
2021/08/31 04:05:47;;;;;;;13.73;10.07;;;15.20;99.90;;;;;;5146166;27;20499;-82
2021/08/31 04:08:13;;;;;;;14.00;9.00;;;15.20;99.90;;;;;;5159238;27;20427;-81
2021/08/31 04:10:40;;;;;;;13.07;9.57;;;15.20;99.90;;;;;;5147787;27;20474;-82
2021/08/31 04:13:07;;;;;;;13.33;9.40;;;15.30;99.90;;;;;;5148359;27;20491;-82
2021/08/31 04:15:34;;;;;;;21.73;10.37;;;15.30;99.90;;;;;;5153107;27;20500;-82
2021/08/31 04:18:02;;;;;;;12.77;9.20;;;15.20;99.90;;;;;;5139601;27;20439;-82
2021/08/31 04:20:29;;;;;;;12.03;10.87;;;15.20;99.90;;;;;;5143027;27;20466;-83
2021/08/31 04:22:55;;;;;;;12.80;9.40;;;15.20;99.90;;;;;;5143335;27;20848;-83
2021/08/31 04:25:22;;;;;;;14.53;12.73;;;15.20;99.90;;;;;;5143042;27;20441;-84
2021/08/31 04:27:50;;;;;;;11.13;9.93;;;15.20;99.90;;;;;;5140305;27;20503;-81
2021/08/31 04:30:16;;;;;;;10.67;9.57;;;15.10;99.90;;;;;;5140705;27;20478;-83
2021/08/31 04:32:43;;;;;;;12.30;9.53;;;15.30;99.90;;;;;;5140603;27;20468;-83
2021/08/31 04:35:11;;;;;;;15.40;9.97;;;15.30;99.90;;;;;;5141012;27;20810;-83
2021/08/31 04:37:38;;;;;;;13.07;9.30;;;15.20;99.90;;;;;;5143260;27;20446;-84
2021/08/31 04:40:06;;;;;;;10.70;9.50;;;15.20;99.90;;;;;;5152928;27;20522;-83
2021/08/31 04:42:32;;;;;;;12.93;9.10;;;15.10;99.90;;;;;;5142887;27;20482;-84
2021/08/31 04:44:59;;;;;;;11.80;8.73;;;15.10;99.90;;;;;;5153247;27;20475;-81
2021/08/31 04:47:26;;;;;;;10.03;9.03;;;15.20;99.90;;;;;;5152688;27;20451;-82
2021/08/31 04:49:52;;;;;;;10.83;9.73;;;15.20;99.90;;;;;;5144262;27;20471;-82
2021/08/31 04:52:20;;;;;;;11.33;9.47;;;15.20;99.90;;;;;;5144426;27;20453;-83
2021/08/31 04:54:47;;;;;;;12.47;9.70;;;15.20;99.90;;;;;;5142268;27;20495;-82
2021/08/31 04:57:13;;;;;;;11.00;9.30;;;15.20;99.90;;;;;;5141149;27;20474;-82
2021/08/31 04:59:40;;;;;;;10.20;8.33;;;15.20;99.90;;;;;;5140498;27;20874;-84
2021/08/31 05:02:07;;;;;;;10.00;8.20;;;15.20;99.90;;;;;;5142434;27;20782;-82
2021/08/31 05:04:35;;;;;;;12.70;9.37;;;15.20;99.90;;;;;;5140991;27;20486;-84
2021/08/31 05:07:04;;;;;;;14.93;9.27;;;15.10;99.90;;;;;;5140550;27;20447;-83
2021/08/31 05:09:32;;;;;;;11.00;8.93;;;15.20;99.90;;;;;;5142440;27;20462;-83
2021/08/31 05:12:00;;;;;;;17.43;9.30;;;15.00;99.90;;;;;;5143045;27;20442;-84
2021/08/31 05:14:26;;;;;;;9.33;8.10;;;15.20;99.90;;;;;;5155498;27;20446;-83
2021/08/31 05:16:53;;;;;;;13.87;8.47;;;15.20;99.90;;;;;;5156100;27;20806;-82
2021/08/31 05:19:20;;;;;;;10.47;8.40;;;15.00;99.90;;;;;;5156508;27;20480;-83
2021/08/31 05:21:49;;;;;;;12.50;8.67;;;15.00;99.90;;;;;;5153505;27;20453;-81
2021/08/31 05:24:16;;;;;;;10.17;8.20;;;15.00;99.90;;;;;;5154849;27;20531;-82
2021/08/31 05:26:44;;;;;;;10.13;8.20;;;15.10;99.90;;;;;;5154866;27;20457;-82
2021/08/31 05:29:11;;;;;;;9.03;8.13;;;15.00;99.90;;;;;;5152733;27;20462;-82
2021/08/31 05:31:37;;;;;;;9.67;8.63;;;15.00;99.90;;;;;;5153933;27;20443;-82
2021/08/31 05:34:04;;;;;;;10.83;7.93;;;15.10;99.90;;;;;;5140893;27;20500;-82
2021/08/31 05:37:33;;;;;;;12.80;8.93;;;14.80;99.90;;;;;;5142751;27;20510;-84
2021/08/31 05:40:03;;;;;;;9.53;8.40;;;15.40;99.90;;;;;;5136934;22;20544;-83
2021/08/31 05:42:38;;;;;;;9.50;7.90;;;15.00;99.90;;;;;;5118648;28;20432;-82
2021/08/31 05:45:06;;;;;;;9.60;8.47;;;15.60;99.90;;;;;;5125406;28;20419;-83
2021/08/31 05:47:35;;;;;;;10.70;9.07;;;14.80;99.90;;;;;;5119411;28;20458;-83
2021/08/31 05:50:06;;;;;;;10.90;8.63;;;15.00;99.90;;;;;;5130228;27;20463;-82
2021/08/31 05:52:33;;;;;;;10.50;9.00;;;14.90;99.90;;;;;;5152921;27;20462;-82
2021/08/31 05:54:59;;;;;;;10.23;7.47;;;15.40;99.90;;;;;;5162369;22;20514;-86
2021/08/31 05:57:26;;;;;;;11.50;8.27;;;15.10;99.90;;;;;;5137879;27;20444;-85
2021/08/31 05:59:54;;;;;;;13.60;9.07;;;15.00;99.90;;;;;;5138236;27;20438;-86
2021/08/31 06:02:20;;;;;;;10.40;8.90;;;15.00;99.90;;;;;;5138439;27;20446;-86
2021/08/31 06:04:47;;;;;;;11.57;8.90;;;15.00;99.90;;;;;;5137628;27;20511;-87
2021/08/31 06:07:14;;;;;;;9.90;8.90;;;15.10;99.90;;;;;;5138125;27;20795;-87
2021/08/31 06:09:41;;;;;;;10.40;8.80;;;15.10;99.90;;;;;;5137291;27;20865;-87
2021/08/31 06:12:10;;;;;;;11.43;9.90;;;15.10;99.90;;;;;;5137169;27;20533;-87
2021/08/31 06:14:38;;;;;;;9.53;8.40;;;15.10;99.90;;;;;;5137710;27;20463;-87
2021/08/31 06:17:08;;;;;;;14.73;10.50;;;15.10;99.90;;;;;;5142458;27;20435;-87
2021/08/31 06:19:36;;;;;;;11.37;9.80;;;15.20;99.90;;;;;;5149282;27;20431;-87
2021/08/31 06:22:03;;;;;;;11.00;9.20;;;14.80;99.90;;;;;;5138388;27;20818;-87
2021/08/31 06:24:29;;;;;;;16.43;10.03;;;14.80;99.90;;;;;;5137569;27;20478;-87
2021/08/31 06:26:56;;;;;;;11.23;9.40;;;15.00;99.90;;;;;;5137991;27;20481;-87
2021/08/31 06:29:23;;;;;;;11.77;9.57;;;14.90;99.90;;;;;;5138324;27;20450;-87
2021/08/31 06:31:49;;;;;;;10.33;8.73;;;14.80;99.90;;;;;;5138613;27;20566;-87
2021/08/31 06:34:17;;;;;;;17.00;10.00;;;14.90;99.90;;;;;;5138417;27;20492;-86
2021/08/31 06:36:44;;;;;;;14.03;11.30;;;14.80;99.90;;;;;;5138418;27;20471;-86
2021/08/31 06:39:10;;;;;;;12.97;11.20;;;14.40;99.90;;;;;;5138794;27;20476;-86
2021/08/31 06:41:37;;;;;;;15.43;10.20;;;14.80;99.90;;;;;;5137064;27;20479;-86
2021/08/31 06:44:04;;;;;;;15.23;10.50;;;14.80;99.90;;;;;;5137747;27;21049;-85
2021/08/31 06:46:31;;;;;;;17.13;10.60;;;14.70;99.90;;;;;;5137408;27;20817;-86
2021/08/31 06:48:57;;;;;;;13.97;10.80;;;14.70;99.90;;;;;;5138627;27;20499;-86
2021/08/31 06:51:25;;;;;;;16.53;12.17;;;14.70;99.90;;;;;;5139746;27;20847;-86
2021/08/31 06:53:52;;;;;;;14.77;11.27;;;14.70;99.90;;;;;;5150086;27;20474;-86
2021/08/31 06:56:20;;;;;;;13.03;11.23;;;14.60;99.90;;;;;;5154311;27;20435;-86
2021/08/31 06:58:47;;;;;;;13.67;12.10;;;14.60;99.90;;;;;;5144627;28;20477;-86
2021/08/31 07:01:14;;;;;;;12.27;9.67;;;14.60;99.90;;;;;;5142892;28;20438;-86
2021/08/31 07:03:40;;;;;;;18.40;10.80;;;14.70;99.90;;;;;;5142540;28;20531;-86
2021/08/31 07:06:08;;;;;;;15.97;11.33;;;14.70;99.90;;;;;;5141656;28;20442;-87
2021/08/31 07:08:36;;;;;;;13.60;10.97;;;14.60;99.90;;;;;;5141181;28;20451;-87
2021/08/31 07:11:02;;;;;;;11.13;9.70;;;14.70;99.90;;;;;;5138938;28;20536;-87
2021/08/31 07:13:29;;;;;;;12.90;9.90;;;14.80;99.90;;;;;;5138524;28;20466;-87
2021/08/31 07:15:55;;;;;;;11.87;10.67;;;15.10;99.90;;;;;;5137649;28;20450;-87
2021/08/31 07:18:22;;;;;;;11.80;9.07;;;14.90;99.90;;;;;;5137020;28;20890;-87
2021/08/31 07:20:48;;;;;;;11.40;10.30;;;14.90;99.90;;;;;;5137161;28;20491;-86
2021/08/31 07:23:15;;;;;;;11.20;9.33;;;15.10;99.90;;;;;;5137207;28;20536;-86
2021/08/31 07:25:43;;;;;;;10.63;9.30;;;15.10;99.90;;;;;;5137367;28;20472;-87
2021/08/31 07:28:10;;;;;;;15.17;9.43;;;15.20;99.90;;;;;;5136731;28;20921;-86
2021/08/31 07:30:37;;;;;;;16.67;9.73;;;15.20;99.90;;;;;;5139210;27;20463;-86
2021/08/31 07:33:05;;;;;;;10.00;8.93;;;15.30;99.90;;;;;;5141998;27;20470;-86
2021/08/31 07:35:32;;;;;;;11.80;9.10;;;15.30;99.90;;;;;;5142056;27;20450;-87
2021/08/31 07:37:59;;;;;;;11.43;9.10;;;15.00;99.90;;;;;;5140597;27;20442;-87
2021/08/31 07:40:26;;;;;;;15.20;8.83;;;15.30;99.90;;;;;;5141502;27;20458;-87
2021/08/31 07:42:54;;;;;;;10.67;8.73;;;15.60;99.90;;;;;;5140349;27;20478;-87
2021/08/31 07:45:20;;;;;;;12.03;8.80;;;15.80;99.90;;;;;;5140966;27;20902;-87
2021/08/31 07:47:47;;;;;;;10.90;8.50;;;15.80;99.90;;;;;;5140997;27;20512;-87
2021/08/31 07:50:14;;;;;;;9.43;8.50;;;15.80;99.90;;;;;;5140134;27;20859;-86
2021/08/31 07:52:41;;;;;;;9.60;8.43;;;15.80;99.90;;;;;;5140492;27;20499;-86
2021/08/31 07:55:10;;;;;;;11.00;8.80;;;15.80;99.90;;;;;;5143636;27;20427;-87
2021/08/31 07:57:37;;;;;;;10.07;8.53;;;16.00;99.90;;;;;;5140421;27;20446;-87
2021/08/31 08:00:07;;;;;;;9.53;7.60;;;16.00;99.90;;;;;;5145376;27;20775;-86
2021/08/31 08:02:34;;;;;;;9.67;7.97;;;16.20;99.90;;;;;;5145793;27;20442;-86
2021/08/31 08:05:01;;;;;;;10.90;8.23;;;15.80;99.90;;;;;;5145144;27;20560;-86
2021/08/31 08:07:28;;;;;;;9.83;7.87;;;16.30;99.90;;;;;;5144128;27;20802;-87
2021/08/31 08:09:55;;;;;;;7.20;6.50;;;16.40;99.90;;;;;;5141958;27;20438;-86
2021/08/31 08:12:23;;;;;;;8.23;7.30;;;16.20;99.90;;;;;;5141314;27;20473;-86
2021/08/31 08:14:50;;;;;;;7.90;7.20;;;16.60;99.90;;;;;;5142616;27;20969;-87
2021/08/31 08:17:19;;;;;;;8.10;7.20;;;;;;;;;;5141791;27;20450;-86
2021/08/31 08:19:47;;;;;;;11.40;7.67;;;16.90;99.90;;;;;;5141232;27;21009;-86
2021/08/31 08:22:14;;;;;;;8.37;7.40;;;17.30;99.90;;;;;;5141065;27;20454;-86
2021/08/31 08:24:41;;;;;;;9.23;6.80;;;17.10;99.90;;;;;;5144750;27;20486;-86
2021/08/31 08:27:08;;;;;;;8.63;7.00;;;17.00;99.90;;;;;;5141804;27;20447;-86
2021/08/31 08:29:37;;;;;;;11.13;7.60;;;17.20;99.90;;;;;;5143685;27;20446;-87
2021/08/31 08:32:05;;;;;;;7.53;6.43;;;17.00;99.90;;;;;;5142957;27;20941;-86
2021/08/31 08:34:33;;;;;;;8.20;7.40;;;17.00;99.90;;;;;;5141130;27;20458;-86
2021/08/31 08:36:59;;;;;;;8.77;7.90;;;17.10;99.90;;;;;;5141247;27;21001;-87
2021/08/31 08:39:26;;;;;;;9.20;7.60;;;17.10;99.90;;;;;;5141670;27;20443;-87
2021/08/31 08:41:53;;;;;;;8.60;7.27;;;17.00;99.90;;;;;;5141832;27;20785;-86
2021/08/31 08:44:20;;;;;;;8.47;7.50;;;17.00;99.90;;;;;;5141629;27;21033;-86
2021/08/31 08:46:47;;;;;;;9.10;8.10;;;16.80;99.90;;;;;;5141773;27;20447;-87
2021/08/31 08:49:14;;;;;;;9.80;7.20;;;16.90;99.90;;;;;;5141286;27;20449;-87
2021/08/31 08:51:43;;;;;;;15.53;7.57;;;16.90;99.90;;;;;;5142530;27;20451;-87
2021/08/31 08:54:09;;;;;;;9.30;7.37;;;17.10;99.90;;;;;;5141048;27;20475;-87
2021/08/31 08:56:36;;;;;;;7.83;7.03;;;17.10;99.90;;;;;;5142663;27;20442;-87
2021/08/31 08:59:03;;;;;;;9.70;6.80;;;17.20;99.90;;;;;;5148643;27;20447;-86
2021/08/31 09:01:42;;;;;;;8.37;7.23;;;17.30;99.90;;;;;;5147481;27;20443;-87
2021/08/31 09:04:09;;;;;;;8.10;7.30;;;17.50;99.90;;;;;;5146761;27;20556;-87
2021/08/31 09:06:36;;;;;;;11.73;8.60;;;17.20;99.90;;;;;;5148483;27;20450;-87
2021/08/31 09:09:07;;;;;;;13.30;7.77;;;17.40;99.90;;;;;;5150544;27;20458;-86
2021/08/31 09:11:35;;;;;;;9.37;8.33;;;17.40;99.90;;;;;;5146518;27;20451;-86
2021/08/31 09:14:22;;;;;;;11.57;7.90;;;17.40;99.90;;;;;;5149129;27;20499;-87
2021/08/31 09:16:50;;;;;;;10.80;9.10;;;17.40;99.90;;;;;;5148049;27;20449;-87
2021/08/31 09:19:17;;;;;;;10.80;7.60;;;17.30;99.90;;;;;;5153622;27;20443;-87
2021/08/31 09:21:47;;;;;;;12.40;10.77;;;17.50;99.90;;;;;;5151271;27;20454;-86
2021/08/31 09:24:15;;;;;;;8.07;7.10;;;17.70;99.90;;;;;;5150894;27;20492;-87
2021/08/31 09:26:43;;;;;;;9.50;8.50;;;17.70;99.90;;;;;;5149953;27;20446;-87
2021/08/31 09:29:16;;;;;;;10.63;8.10;;;17.80;99.90;;;;;;5148508;27;20460;-86
2021/08/31 09:31:44;;;;;;;8.43;7.63;;;17.70;99.90;;;;;;5147852;27;20468;-86
2021/08/31 09:34:32;;;;;;;11.13;8.20;;;17.80;99.90;;;;;;5145133;27;20462;-86
2021/08/31 09:37:26;;;;;;;8.10;7.33;;;17.90;99.90;;;;;;5145805;27;20796;-86
2021/08/31 09:40:12;;;;;;;8.73;7.17;;;17.80;99.90;;;;;;5145332;27;20430;-86
2021/08/31 09:43:00;;;;;;;8.00;7.20;;;17.80;99.90;;;;;;5144876;27;20427;-86
2021/08/31 09:45:30;;;;;;;9.23;7.40;;;17.80;99.90;;;;;;5145664;27;20470;-87
2021/08/31 09:47:57;;;;;;;8.10;6.63;;;17.80;99.90;;;;;;5141854;27;20503;-87
2021/08/31 09:50:36;;;;;;;7.80;6.90;;;17.80;99.90;;;;;;5141090;27;20837;-87
2021/08/31 09:53:12;;;;;;;8.07;7.27;;;17.90;99.90;;;;;;5140837;27;20581;-87
2021/08/31 09:55:42;;;;;;;12.07;10.50;;;17.80;99.90;;;;;;5152840;27;20492;-86
2021/08/31 09:58:11;;;;;;;11.67;9.60;;;17.90;99.90;;;;;;5156955;27;20443;-86
2021/08/31 10:00:38;;;;;;;10.63;9.53;;;17.80;99.90;;;;;;5146674;27;20442;-86
2021/08/31 10:03:05;;;;;;;8.87;8.07;;;18.00;99.90;;;;;;5145180;27;20843;-87
2021/08/31 10:05:34;;;;;;;11.20;8.33;;;18.00;99.90;;;;;;5143751;27;20492;-87
2021/08/31 10:08:02;;;;;;;8.20;7.40;;;18.10;99.90;;;;;;5141984;27;20470;-87
2021/08/31 10:10:29;;;;;;;8.27;7.37;;;18.10;99.90;;;;;;5142120;27;20886;-87
2021/08/31 10:13:01;;;;;;;8.57;7.77;;;18.60;99.90;;;;;;5142416;27;20496;-87
2021/08/31 10:15:28;;;;;;;8.40;7.63;;;18.30;99.90;;;;;;5141220;27;20419;-87
2021/08/31 10:17:56;;;;;;;10.30;9.13;;;18.40;99.90;;;;;;5139366;27;20471;-87
2021/08/31 10:20:25;;;;;;;9.20;7.43;;;18.30;99.90;;;;;;5140506;27;20916;-87
2021/08/31 10:22:52;;;;;;;7.80;7.10;;;18.70;99.90;;;;;;5150352;27;20442;-87
2021/08/31 10:25:22;;;;;;;8.17;7.23;;;18.40;99.90;;;;;;5150959;27;20475;-87
2021/08/31 10:27:49;;;;;;;7.20;6.50;;;18.40;99.90;;;;;;5146487;27;20422;-87
2021/08/31 10:30:37;;;;;;;7.27;6.57;;;18.40;99.90;;;;;;5156512;27;20430;-86
2021/08/31 10:33:20;;;;;;;8.20;7.37;;;18.40;99.90;;;;;;5158657;27;20458;-86
2021/08/31 10:35:57;;;;;;;8.57;6.87;;;18.50;99.90;;;;;;5156330;27;20431;-87
2021/08/31 10:38:53;;;;;;;7.70;6.90;;;18.70;99.90;;;;;;5152483;27;20427;-87
2021/08/31 10:41:45;;;;;;;9.93;7.23;;;18.80;99.90;;;;;;5150594;27;20430;-86
2021/08/31 10:44:14;;;;;;;13.20;6.63;;;18.70;99.90;;;;;;5153763;27;20514;-87
2021/08/31 10:47:21;;;;;;;7.93;7.13;;;18.70;99.90;;;;;;5151210;27;20443;-87
2021/08/31 10:50:23;;;;;;;8.40;7.33;;;18.70;99.90;;;;;;5152160;27;20447;-87
2021/08/31 10:53:04;;;;;;;7.97;6.53;;;18.80;99.90;;;;;;5148938;27;20418;-87
2021/08/31 10:55:45;;;;;;;8.50;7.60;;;18.50;99.90;;;;;;5148909;27;20419;-87
2021/08/31 10:58:13;;;;;;;7.27;6.50;;;18.50;99.90;;;;;;5150229;27;20427;-86
2021/08/31 11:00:52;;;;;;;8.87;6.50;;;18.50;99.90;;;;;;5150667;28;20442;-86
2021/08/31 11:03:37;;;;;;;8.73;6.80;;;18.40;99.90;;;;;;5148561;28;20526;-87
2021/08/31 11:06:35;;;;;;;7.73;6.83;;;18.40;99.90;;;;;;5155281;27;20466;-87
2021/08/31 11:09:13;;;;;;;8.57;7.67;;;18.40;99.90;;;;;;5161050;27;20430;-87
2021/08/31 11:11:42;;;;;;;8.53;7.47;;;18.40;99.90;;;;;;5159772;27;20434;-86
2021/08/31 11:14:09;;;;;;;8.03;7.27;;;17.90;99.90;;;;;;5162389;27;20435;-86
2021/08/31 11:16:37;;;;;;;8.70;7.60;;;18.50;99.90;;;;;;5160226;27;20441;-87
2021/08/31 11:19:04;;;;;;;9.37;7.97;;;18.70;99.90;;;;;;5149072;27;20438;-88
2021/08/31 11:21:45;;;;;;;9.67;8.70;;;18.90;99.90;;;;;;5147245;27;20441;-87
2021/08/31 11:24:12;;;;;;;8.27;7.33;;;18.90;99.90;;;;;;5154814;27;20462;-87
2021/08/31 11:26:39;;;;;;;13.70;9.57;;;19.00;99.90;;;;;;5159066;27;20477;-86
2021/08/31 11:29:07;;;;;;;9.50;7.23;;;19.10;99.90;;;;;;5160680;27;20451;-87
2021/08/31 11:31:34;;;;;;;7.80;7.00;;;19.20;99.90;;;;;;5160921;27;20442;-87
2021/08/31 11:34:01;;;;;;;7.70;7.00;;;19.30;99.90;;;;;;5159057;27;20463;-87
2021/08/31 11:36:29;;;;;;;7.20;6.50;;;19.30;99.90;;;;;;5155907;27;20973;-87
2021/08/31 11:38:58;;;;;;;8.27;7.23;;;19.30;99.90;;;;;;5160222;27;20459;-86
2021/08/31 11:41:27;;;;;;;9.03;7.40;;;19.20;99.90;;;;;;5163470;27;20435;-87
2021/08/31 11:43:55;;;;;;;8.13;7.33;;;19.30;99.90;;;;;;5163071;27;20443;-86
2021/08/31 11:46:24;;;;;;;8.30;7.20;;;19.20;99.90;;;;;;5162079;27;20462;-87
2021/08/31 11:49:06;;;;;;;7.53;6.83;;;19.30;99.90;;;;;;5153000;27;20452;-87
2021/08/31 11:51:32;;;;;;;6.73;6.03;;;19.30;99.90;;;;;;5151560;27;20427;-88
2021/08/31 11:54:10;;;;;;;6.60;6.00;;;19.20;99.90;;;;;;5162853;22;20493;-84
2021/08/31 11:56:39;;;;;;;8.00;7.27;;;19.10;99.90;;;;;;5146401;27;20440;-82
2021/08/31 11:59:06;;;;;;;7.37;6.50;;;19.00;99.90;;;;;;5148377;27;20438;-82
2021/08/31 12:01:34;;;;;;;9.07;8.03;;;19.10;99.90;;;;;;5146165;27;20492;-81
2021/08/31 12:04:20;;;;;;;8.23;7.43;;;19.10;99.90;;;;;;5152885;27;20470;-82
2021/08/31 12:06:57;;;;;;;9.33;6.50;;;19.10;99.90;;;;;;5153068;27;20501;-82
2021/08/31 12:09:26;;;;;;;11.10;6.30;;;19.00;99.90;;;;;;5146370;27;20457;-83
2021/08/31 12:11:53;;;;;;;6.80;6.20;;;19.10;99.90;;;;;;5144146;27;21012;-83
2021/08/31 12:14:22;;;;;;;7.43;6.00;;;18.90;99.90;;;;;;5145849;27;20466;-82
2021/08/31 12:16:51;;;;;;;10.90;6.27;;;19.10;99.90;;;;;;5149271;27;20491;-82
2021/08/31 12:19:19;;;;;;;6.90;6.23;;;18.50;99.90;;;;;;5149126;27;20443;-84
2021/08/31 12:22:04;;;;;;;7.20;6.60;;;18.90;99.90;;;;;;5150946;27;20529;-81
2021/08/31 12:24:32;;;;;;;6.83;6.13;;;18.80;99.90;;;;;;5149006;27;20515;-84
2021/08/31 12:27:09;;;;;;;7.37;6.37;;;18.70;99.90;;;;;;5149374;27;20486;-82
2021/08/31 12:29:47;;;;;;;6.03;5.43;;;19.30;99.90;;;;;;5149563;27;20431;-82
2021/08/31 12:32:15;;;;;;;6.43;5.90;;;18.60;99.90;;;;;;5148773;27;20471;-83
2021/08/31 12:34:42;;;;;;;7.10;6.40;;;18.50;99.90;;;;;;5146049;27;20459;-83
2021/08/31 12:37:29;;;;;;;6.20;5.60;;;18.40;99.90;;;;;;5144555;27;20488;-83
2021/08/31 12:40:18;;;;;;;6.63;5.73;;;18.60;99.90;;;;;;5143206;27;20480;-83
2021/08/31 12:42:47;;;;;;;8.23;6.40;;;18.50;99.90;;;;;;5142420;27;20469;-83
2021/08/31 12:45:14;;;;;;;6.83;5.80;;;18.40;99.90;;;;;;5144882;27;20597;-83
2021/08/31 12:47:53;;;;;;;7.20;5.97;;;18.40;99.90;;;;;;5149995;27;20503;-83
2021/08/31 12:50:20;;;;;;;6.00;5.40;;;18.50;99.90;;;;;;5149954;27;20423;-83